Booke-end — WDI9250 — position and weather

sailwx.info

Track history (hours):
 
Tides and Currents Weather Stations Pressure Air Temp Water Temp Dewpoint Dewpoint Depression Visibility Wind Speed Wind Dir Waves Ship Positions

Booke-end

Owner: Pacific escort llc, Charlotte, NC. More information available from US FCC via Universal Licensing System.

Last reported at 2017-Dec-15 19:52 UTC. Time now 2018-Jan-19 11:34 UTC.
Position N 26°54' W 080°04'.
Warning: this ship's position is 34 days out of date.

; draft 2.2 m.

Type: Pleasure craft. MMSI: 367746790.

Date/timePositionNaut miles runAvg speedWind from/ knotsBaromVisibWave heightAir tempDewpointWater temp
2017-Dec-15 19:52N 26°54' W 080°04'1 2.5
2017-Dec-15 19:30N 26°53' W 080°04'2 4.5
2017-Dec-15 19:00N 26°51' W 080°04'1 1.6
2017-Dec-15 18:31N 26°50' W 080°03'1 1.6
2017-Dec-15 18:00N 26°49' W 080°03'3 6.2
2017-Dec-15 17:30N 26°46' W 080°03'2 3.2
2017-Dec-15 17:00N 26°46' W 080°01'3 5.2
2017-Dec-15 16:31N 26°45' W 079°59'1 2.3
2017-Dec-15 16:01N 26°44' W 079°60'1 2.5
2017-Dec-15 15:30N 26°44' W 080°01'1 2.6
2017-Dec-15 15:00N 26°46' W 080°01'2 3.5
2017-Dec-15 14:30N 26°47' W 080°03'3 6.2
2017-Dec-15 14:00N 26°50' W 080°03'1 2.0
2017-Dec-15 13:25N 26°51' W 080°04'2 5.3
2017-Dec-15 13:00N 26°53' W 080°04'1 1.4
2017-Dec-15 12:30N 26°54' W 080°04'0 0.0
2017-Dec-15 12:00N 26°54' W 080°04'0 0.0
2017-Dec-13 22:19N 26°54' W 080°04'0 0.0
2017-Dec-13 22:00N 26°54' W 080°04'0 0.0
2017-Dec-13 21:30N 26°54' W 080°04'0 0.0
2017-Dec-13 21:00N 26°54' W 080°04'0 0.0
2017-Dec-13 20:30N 26°54' W 080°04'  
Track history (hours):
 
Tides and Currents Weather Stations Pressure Air Temp Water Temp Dewpoint Dewpoint Depression Visibility Wind Speed Wind Dir Waves Ship Positions

Booke-end

Owner: Pacific escort llc, Charlotte, NC. More information available from US FCC via Universal Licensing System.

Last reported at 2017-Dec-15 19:52 UTC. Time now 2018-Jan-19 11:34 UTC.
Position N 26°54' W 080°04'.
Warning: this ship's position is 34 days out of date.

; draft 2.2 m.

Type: Pleasure craft. MMSI: 367746790.

Date/timePositionNaut miles runAvg speedWind from/ knotsBaromVisibWave heightAir tempDewpointWater temp
2017-Dec-15 19:52N 26°54' W 080°04'1 2.5
2017-Dec-15 19:30N 26°53' W 080°04'2 4.5
2017-Dec-15 19:00N 26°51' W 080°04'1 1.6
2017-Dec-15 18:31N 26°50' W 080°03'1 1.6
2017-Dec-15 18:00N 26°49' W 080°03'3 6.2
2017-Dec-15 17:30N 26°46' W 080°03'2 3.2
2017-Dec-15 17:00N 26°46' W 080°01'3 5.2
2017-Dec-15 16:31N 26°45' W 079°59'1 2.3
2017-Dec-15 16:01N 26°44' W 079°60'1 2.5
2017-Dec-15 15:30N 26°44' W 080°01'1 2.6
2017-Dec-15 15:00N 26°46' W 080°01'2 3.5
2017-Dec-15 14:30N 26°47' W 080°03'3 6.2
2017-Dec-15 14:00N 26°50' W 080°03'1 2.0
2017-Dec-15 13:25N 26°51' W 080°04'2 5.3
2017-Dec-15 13:00N 26°53' W 080°04'1 1.4
2017-Dec-15 12:30N 26°54' W 080°04'0 0.0
2017-Dec-15 12:00N 26°54' W 080°04'0 0.0
2017-Dec-13 22:19N 26°54' W 080°04'0 0.0
2017-Dec-13 22:00N 26°54' W 080°04'0 0.0
2017-Dec-13 21:30N 26°54' W 080°04'0 0.0
2017-Dec-13 21:00N 26°54' W 080°04'0 0.0
2017-Dec-13 20:30N 26°54' W 080°04'  

Dump ship's entire track history